UTA7775 USDD-USRO
Flight info
| Callsign | UTA7775 |
|---|---|
| Flight time | 1h 5m |
| Altitude | 35000 |
| Route | ABIMA1N ABIMA G719 GIMIR W255 BETIL BETIL1J |
| Aircraft | B738/M-SDE2E3FGHIRWXY/LB1 |
Departure
| Time | 2026-04-15 12:18 |
|---|---|
| Airport | Salekhard Airport (USDD) |
Arrival
| Time | 2026-04-15 13:23 |
|---|---|
| Airport | Noyabrsk Airport (USRO) |
| Time | Latitude | Longitude | Altitude | Speed | Heading |
|---|---|---|---|---|---|
| 2026-04-15 12:07 | 66.58944 | 66.59367 | 232 ft | 0 kts | 233° |
| 2026-04-15 12:11 | 66.58944 | 66.59366 | 232 ft | 1 kts | 233° |
| 2026-04-15 12:11 | 66.58934 | 66.59337 | 231 ft | 2 kts | 227° |
| 2026-04-15 12:12 | 66.58924 | 66.59316 | 234 ft | 1 kts | 218° |
| 2026-04-15 12:12 | 66.58916 | 66.59308 | 233 ft | 3 kts | 200° |
| 2026-04-15 12:12 | 66.58898 | 66.59347 | 232 ft | 7 kts | 107° |
| 2026-04-15 12:12 | 66.58903 | 66.59472 | 231 ft | 7 kts | 77° |
| 2026-04-15 12:13 | 66.58923 | 66.59579 | 232 ft | 7 kts | 59° |
| 2026-04-15 12:13 | 66.58950 | 66.59674 | 229 ft | 7 kts | 59° |
| 2026-04-15 12:13 | 66.58966 | 66.59783 | 228 ft | 7 kts | 74° |
| 2026-04-15 12:13 | 66.58985 | 66.59870 | 228 ft | 5 kts | 43° |
| 2026-04-15 12:14 | 66.59025 | 66.60006 | 228 ft | 12 kts | 60° |
| 2026-04-15 12:14 | 66.59070 | 66.60204 | 225 ft | 9 kts | 62° |
| 2026-04-15 12:14 | 66.59100 | 66.60352 | 224 ft | 9 kts | 66° |
| 2026-04-15 12:14 | 66.59080 | 66.60473 | 225 ft | 8 kts | 148° |
| 2026-04-15 12:15 | 66.59032 | 66.60550 | 224 ft | 8 kts | 144° |
| 2026-04-15 12:15 | 66.58998 | 66.60692 | 223 ft | 11 kts | 92° |
| 2026-04-15 12:15 | 66.59025 | 66.60880 | 224 ft | 14 kts | 61° |
| 2026-04-15 12:15 | 66.59090 | 66.61177 | 222 ft | 22 kts | 61° |
| 2026-04-15 12:16 | 66.59164 | 66.61520 | 223 ft | 23 kts | 61° |
| 2026-04-15 12:16 | 66.59240 | 66.61872 | 216 ft | 23 kts | 63° |
| 2026-04-15 12:16 | 66.59314 | 66.62217 | 219 ft | 22 kts | 61° |
| 2026-04-15 12:16 | 66.59388 | 66.62559 | 207 ft | 23 kts | 62° |
| 2026-04-15 12:17 | 66.59461 | 66.62905 | 206 ft | 22 kts | 62° |
| 2026-04-15 12:17 | 66.59535 | 66.63241 | 213 ft | 22 kts | 61° |
| 2026-04-15 12:17 | 66.59615 | 66.63542 | 204 ft | 19 kts | 49° |
| 2026-04-15 12:17 | 66.59654 | 66.63666 | 202 ft | 7 kts | 94° |
| 2026-04-15 12:18 | 66.59617 | 66.63666 | 200 ft | 7 kts | 229° |
| 2026-04-15 12:18 | 66.59446 | 66.62839 | 206 ft | 110 kts | 242° |
| 2026-04-15 12:18 | 66.58929 | 66.60489 | 485 ft | 182 kts | 243° |
| 2026-04-15 12:18 | 66.58267 | 66.57649 | 1010 ft | 196 kts | 243° |
| 2026-04-15 12:19 | 66.57616 | 66.54508 | 1481 ft | 207 kts | 246° |
| 2026-04-15 12:19 | 66.56958 | 66.51196 | 1985 ft | 224 kts | 247° |
| 2026-04-15 12:19 | 66.56276 | 66.47534 | 2532 ft | 233 kts | 257° |
| 2026-04-15 12:19 | 66.56234 | 66.43660 | 3133 ft | 215 kts | 292° |
| 2026-04-15 12:20 | 66.56971 | 66.40581 | 3777 ft | 209 kts | 318° |
| 2026-04-15 12:20 | 66.58202 | 66.38684 | 4401 ft | 210 kts | 344° |
| 2026-04-15 12:20 | 66.59667 | 66.38540 | 5045 ft | 216 kts | 12° |
| 2026-04-15 12:20 | 66.60982 | 66.40293 | 5680 ft | 222 kts | 41° |
| 2026-04-15 12:21 | 66.61786 | 66.43632 | 6284 ft | 228 kts | 70° |
| 2026-04-15 12:21 | 66.61745 | 66.47658 | 6906 ft | 240 kts | 101° |
| 2026-04-15 12:21 | 66.61037 | 66.51621 | 7365 ft | 256 kts | 115° |
| 2026-04-15 12:21 | 66.60125 | 66.55504 | 7680 ft | 259 kts | 116° |
| 2026-04-15 12:22 | 66.59192 | 66.59402 | 7988 ft | 259 kts | 116° |
| 2026-04-15 12:22 | 66.58277 | 66.63279 | 8296 ft | 256 kts | 114° |
| 2026-04-15 12:22 | 66.57416 | 66.67233 | 8624 ft | 260 kts | 112° |
| 2026-04-15 12:22 | 66.56559 | 66.71268 | 8958 ft | 263 kts | 112° |
| 2026-04-15 12:23 | 66.55692 | 66.75352 | 9288 ft | 266 kts | 112° |
| 2026-04-15 12:23 | 66.54816 | 66.79470 | 9627 ft | 268 kts | 112° |
| 2026-04-15 12:23 | 66.53931 | 66.83613 | 9957 ft | 270 kts | 111° |
| 2026-04-15 12:23 | 66.53039 | 66.87779 | 10296 ft | 272 kts | 111° |
| 2026-04-15 12:24 | 66.52139 | 66.91970 | 10607 ft | 273 kts | 111° |
| 2026-04-15 12:24 | 66.51234 | 66.96171 | 10920 ft | 274 kts | 111° |
| 2026-04-15 12:24 | 66.50325 | 67.00385 | 11234 ft | 276 kts | 111° |
| 2026-04-15 12:24 | 66.49411 | 67.04611 | 11541 ft | 277 kts | 111° |
| 2026-04-15 12:25 | 66.48491 | 67.08857 | 11860 ft | 278 kts | 111° |
| 2026-04-15 12:25 | 66.47566 | 67.13117 | 12181 ft | 279 kts | 111° |
| 2026-04-15 12:25 | 66.46635 | 67.17397 | 12505 ft | 281 kts | 111° |
| 2026-04-15 12:25 | 66.45699 | 67.21691 | 12838 ft | 282 kts | 111° |
| 2026-04-15 12:26 | 66.44765 | 67.25968 | 13164 ft | 285 kts | 110° |
| 2026-04-15 12:26 | 66.43813 | 67.30323 | 13496 ft | 287 kts | 110° |
| 2026-04-15 12:26 | 66.42852 | 67.34702 | 13830 ft | 285 kts | 110° |
| 2026-04-15 12:26 | 66.41904 | 67.39002 | 14138 ft | 281 kts | 110° |
| 2026-04-15 12:27 | 66.40967 | 67.43254 | 14438 ft | 276 kts | 110° |
| 2026-04-15 12:27 | 66.40051 | 67.47407 | 14722 ft | 271 kts | 110° |
| 2026-04-15 12:27 | 66.39140 | 67.51535 | 15024 ft | 272 kts | 110° |
| 2026-04-15 12:27 | 66.38221 | 67.55692 | 15340 ft | 275 kts | 110° |
| 2026-04-15 12:28 | 66.37293 | 67.59879 | 15643 ft | 277 kts | 110° |
| 2026-04-15 12:28 | 66.36361 | 67.64085 | 16019 ft | 278 kts | 109° |
| 2026-04-15 12:28 | 66.35424 | 67.68316 | 16337 ft | 279 kts | 109° |
| 2026-04-15 12:28 | 66.34481 | 67.72565 | 16665 ft | 281 kts | 109° |
| 2026-04-15 12:29 | 66.33534 | 67.76821 | 16980 ft | 281 kts | 109° |
| 2026-04-15 12:29 | 66.32585 | 67.81079 | 17312 ft | 282 kts | 109° |
| 2026-04-15 12:29 | 66.31631 | 67.85355 | 17642 ft | 283 kts | 109° |
| 2026-04-15 12:29 | 66.30670 | 67.89653 | 17980 ft | 284 kts | 109° |
| 2026-04-15 12:30 | 66.29704 | 67.93964 | 18327 ft | 286 kts | 109° |
| 2026-04-15 12:30 | 66.28733 | 67.98292 | 18661 ft | 288 kts | 109° |
| 2026-04-15 12:30 | 66.27756 | 68.02642 | 18972 ft | 289 kts | 109° |
| 2026-04-15 12:30 | 66.26769 | 68.07021 | 19271 ft | 291 kts | 109° |
| 2026-04-15 12:31 | 66.25776 | 68.11422 | 19580 ft | 293 kts | 109° |
| 2026-04-15 12:31 | 66.24774 | 68.15848 | 19887 ft | 295 kts | 109° |
| 2026-04-15 12:31 | 66.23764 | 68.20305 | 20196 ft | 297 kts | 109° |
| 2026-04-15 12:31 | 66.22746 | 68.24789 | 20380 ft | 301 kts | 110° |
| 2026-04-15 12:32 | 66.21716 | 68.29315 | 20359 ft | 301 kts | 110° |
| 2026-04-15 12:32 | 66.20685 | 68.33818 | 20350 ft | 298 kts | 110° |
| 2026-04-15 12:32 | 66.19665 | 68.38262 | 20353 ft | 296 kts | 110° |
| 2026-04-15 12:32 | 66.18660 | 68.42644 | 20364 ft | 297 kts | 110° |
| 2026-04-15 12:33 | 66.17641 | 68.47083 | 20367 ft | 298 kts | 110° |
| 2026-04-15 12:33 | 66.16616 | 68.51545 | 20361 ft | 299 kts | 110° |
| 2026-04-15 12:33 | 66.15585 | 68.56020 | 20361 ft | 299 kts | 110° |
| 2026-04-15 12:33 | 66.14552 | 68.60490 | 20358 ft | 300 kts | 110° |
| 2026-04-15 12:34 | 66.13517 | 68.64964 | 20358 ft | 300 kts | 110° |
| 2026-04-15 12:34 | 66.12478 | 68.69439 | 20358 ft | 301 kts | 110° |
| 2026-04-15 12:34 | 66.11435 | 68.73928 | 20356 ft | 301 kts | 110° |
| 2026-04-15 12:34 | 66.10392 | 68.78401 | 20354 ft | 301 kts | 110° |
| 2026-04-15 12:35 | 66.09349 | 68.82868 | 20364 ft | 300 kts | 110° |
| 2026-04-15 12:35 | 66.08306 | 68.87327 | 20407 ft | 301 kts | 109° |
| 2026-04-15 12:35 | 66.07612 | 68.90288 | 20379 ft | 302 kts | 109° |
| 2026-04-15 12:35 | 66.06563 | 68.94764 | 20365 ft | 302 kts | 109° |
| 2026-04-15 12:36 | 66.05513 | 68.99227 | 20362 ft | 301 kts | 110° |
| 2026-04-15 12:36 | 66.04462 | 69.03682 | 20343 ft | 300 kts | 110° |
| 2026-04-15 12:36 | 66.03414 | 69.08118 | 20354 ft | 300 kts | 110° |
| 2026-04-15 12:36 | 66.02365 | 69.12549 | 20343 ft | 299 kts | 110° |
| 2026-04-15 12:37 | 66.01319 | 69.16962 | 20358 ft | 299 kts | 110° |
| 2026-04-15 12:37 | 66.00273 | 69.21363 | 20339 ft | 298 kts | 110° |
| 2026-04-15 12:37 | 65.99225 | 69.25765 | 20353 ft | 298 kts | 110° |
| 2026-04-15 12:37 | 65.98179 | 69.30150 | 20358 ft | 298 kts | 110° |
| 2026-04-15 12:38 | 65.97130 | 69.34542 | 20358 ft | 298 kts | 110° |
| 2026-04-15 12:38 | 65.96080 | 69.38930 | 20358 ft | 298 kts | 110° |
| 2026-04-15 12:38 | 65.95026 | 69.43323 | 20343 ft | 299 kts | 110° |
| 2026-04-15 12:38 | 65.93970 | 69.47715 | 20352 ft | 299 kts | 110° |
| 2026-04-15 12:39 | 65.92911 | 69.52109 | 20353 ft | 300 kts | 110° |
| 2026-04-15 12:39 | 65.91851 | 69.56504 | 20349 ft | 300 kts | 110° |
| 2026-04-15 12:39 | 65.90788 | 69.60895 | 20348 ft | 300 kts | 110° |
| 2026-04-15 12:39 | 65.89721 | 69.65297 | 20348 ft | 301 kts | 110° |
| 2026-04-15 12:40 | 65.88649 | 69.69710 | 20341 ft | 301 kts | 110° |
| 2026-04-15 12:40 | 65.87578 | 69.74111 | 20357 ft | 301 kts | 110° |
| 2026-04-15 12:40 | 65.86518 | 69.78456 | 20345 ft | 302 kts | 110° |
| 2026-04-15 12:40 | 65.85444 | 69.82854 | 20344 ft | 302 kts | 110° |
| 2026-04-15 12:41 | 65.84368 | 69.87246 | 20346 ft | 301 kts | 110° |
| 2026-04-15 12:41 | 65.83290 | 69.91639 | 20350 ft | 301 kts | 110° |
| 2026-04-15 12:41 | 65.82211 | 69.96030 | 20337 ft | 302 kts | 111° |
| 2026-04-15 12:41 | 65.81132 | 70.00410 | 20333 ft | 302 kts | 111° |
| 2026-04-15 12:42 | 65.80050 | 70.04794 | 20334 ft | 301 kts | 111° |
| 2026-04-15 12:42 | 65.78966 | 70.09174 | 20371 ft | 303 kts | 110° |
| 2026-04-15 12:42 | 65.77878 | 70.13574 | 20341 ft | 304 kts | 110° |
| 2026-04-15 12:42 | 65.76784 | 70.17981 | 20338 ft | 304 kts | 110° |
| 2026-04-15 12:43 | 65.75690 | 70.22376 | 20337 ft | 304 kts | 110° |
| 2026-04-15 12:43 | 65.74594 | 70.26773 | 20337 ft | 304 kts | 110° |
| 2026-04-15 12:43 | 65.73498 | 70.31157 | 20326 ft | 303 kts | 110° |
| 2026-04-15 12:43 | 65.72402 | 70.35541 | 20327 ft | 303 kts | 110° |
| 2026-04-15 12:44 | 65.71306 | 70.39910 | 20328 ft | 303 kts | 110° |
| 2026-04-15 12:44 | 65.70210 | 70.44283 | 20328 ft | 303 kts | 110° |
| 2026-04-15 12:44 | 65.69112 | 70.48646 | 20330 ft | 303 kts | 110° |
| 2026-04-15 12:44 | 65.68012 | 70.53003 | 20330 ft | 303 kts | 111° |
| 2026-04-15 12:45 | 65.66924 | 70.57367 | 20329 ft | 300 kts | 107° |
| 2026-04-15 12:45 | 65.66299 | 70.61906 | 20348 ft | 279 kts | 87° |
| 2026-04-15 12:45 | 65.65938 | 70.66557 | 20327 ft | 279 kts | 87° |
| 2026-04-15 12:45 | 65.65590 | 70.71153 | 20333 ft | 279 kts | 87° |
| 2026-04-15 12:46 | 65.65235 | 70.75777 | 20327 ft | 280 kts | 87° |
| 2026-04-15 12:46 | 65.64871 | 70.80438 | 20325 ft | 281 kts | 87° |
| 2026-04-15 12:46 | 65.64501 | 70.85085 | 20324 ft | 281 kts | 88° |
| 2026-04-15 12:46 | 65.64125 | 70.89742 | 20324 ft | 282 kts | 88° |
| 2026-04-15 12:47 | 65.63744 | 70.94413 | 20320 ft | 282 kts | 88° |
| 2026-04-15 12:47 | 65.63361 | 70.99076 | 20321 ft | 283 kts | 88° |
| 2026-04-15 12:47 | 65.62973 | 71.03761 | 20323 ft | 283 kts | 88° |
| 2026-04-15 12:47 | 65.62589 | 71.08376 | 20321 ft | 283 kts | 88° |
| 2026-04-15 12:48 | 65.62198 | 71.13054 | 20384 ft | 283 kts | 88° |
| 2026-04-15 12:48 | 65.61803 | 71.17764 | 20336 ft | 285 kts | 88° |
| 2026-04-15 12:48 | 65.61406 | 71.22479 | 20326 ft | 285 kts | 88° |
| 2026-04-15 12:48 | 65.61012 | 71.27122 | 20316 ft | 285 kts | 88° |
| 2026-04-15 12:49 | 65.60608 | 71.31859 | 20310 ft | 284 kts | 88° |
| 2026-04-15 12:49 | 65.60208 | 71.36536 | 20313 ft | 284 kts | 88° |
| 2026-04-15 12:49 | 65.59808 | 71.41207 | 20311 ft | 283 kts | 88° |
| 2026-04-15 12:49 | 65.59405 | 71.45963 | 20343 ft | 300 kts | 88° |
| 2026-04-15 12:50 | 65.58975 | 71.51181 | 20349 ft | 333 kts | 90° |
| 2026-04-15 12:50 | 65.58487 | 71.56937 | 20338 ft | 365 kts | 91° |
| 2026-04-15 12:50 | 65.57910 | 71.63181 | 20313 ft | 399 kts | 98° |
| 2026-04-15 12:50 | 65.56619 | 71.69396 | 20317 ft | 436 kts | 118° |
| 2026-04-15 12:51 | 65.54718 | 71.75216 | 20304 ft | 443 kts | 124° |
| 2026-04-15 12:51 | 65.52713 | 71.80848 | 20287 ft | 442 kts | 124° |
| 2026-04-15 12:51 | 65.50723 | 71.86485 | 20288 ft | 440 kts | 123° |
| 2026-04-15 12:51 | 65.48775 | 71.92213 | 20311 ft | 450 kts | 122° |
| 2026-04-15 12:52 | 65.46799 | 71.98253 | 20305 ft | 464 kts | 122° |
| 2026-04-15 12:52 | 65.44826 | 72.04406 | 20297 ft | 466 kts | 121° |
| 2026-04-15 12:52 | 65.42862 | 72.10586 | 20281 ft | 465 kts | 121° |
| 2026-04-15 12:52 | 65.40910 | 72.16758 | 20286 ft | 464 kts | 121° |
| 2026-04-15 12:53 | 65.38959 | 72.22933 | 20291 ft | 464 kts | 121° |
| 2026-04-15 12:53 | 65.37008 | 72.29098 | 20295 ft | 464 kts | 121° |
| 2026-04-15 12:53 | 65.35054 | 72.35256 | 20293 ft | 464 kts | 121° |
| 2026-04-15 12:53 | 65.33098 | 72.41402 | 20295 ft | 464 kts | 121° |
| 2026-04-15 12:54 | 65.31140 | 72.47535 | 20284 ft | 465 kts | 121° |
| 2026-04-15 12:54 | 65.29171 | 72.53678 | 20286 ft | 465 kts | 121° |
| 2026-04-15 12:54 | 65.27202 | 72.59805 | 20287 ft | 465 kts | 121° |
| 2026-04-15 12:54 | 65.25226 | 72.65937 | 20294 ft | 465 kts | 121° |
| 2026-04-15 12:55 | 65.23250 | 72.72052 | 20290 ft | 466 kts | 121° |
| 2026-04-15 12:55 | 65.21292 | 72.78096 | 20285 ft | 466 kts | 122° |
| 2026-04-15 12:55 | 65.19308 | 72.84204 | 20281 ft | 466 kts | 122° |
| 2026-04-15 12:55 | 65.17293 | 72.90389 | 20283 ft | 466 kts | 122° |
| 2026-04-15 12:56 | 65.15331 | 72.96397 | 20281 ft | 466 kts | 122° |
| 2026-04-15 12:56 | 65.13342 | 73.02475 | 20280 ft | 466 kts | 122° |
| 2026-04-15 12:56 | 65.11346 | 73.08554 | 20279 ft | 466 kts | 122° |
| 2026-04-15 12:56 | 65.09335 | 73.14620 | 20281 ft | 467 kts | 124° |
| 2026-04-15 12:57 | 65.06924 | 73.19885 | 20272 ft | 479 kts | 144° |
| 2026-04-15 12:57 | 65.03958 | 73.23522 | 20297 ft | 481 kts | 152° |
| 2026-04-15 12:57 | 65.00934 | 73.26927 | 20285 ft | 482 kts | 152° |
| 2026-04-15 12:57 | 64.97910 | 73.30364 | 20288 ft | 482 kts | 152° |
| 2026-04-15 12:58 | 64.94896 | 73.33829 | 20280 ft | 482 kts | 152° |
| 2026-04-15 12:58 | 64.91886 | 73.37320 | 20277 ft | 482 kts | 152° |
| 2026-04-15 12:58 | 64.88877 | 73.40828 | 20276 ft | 482 kts | 151° |
| 2026-04-15 12:58 | 64.85875 | 73.44334 | 20279 ft | 482 kts | 151° |
| 2026-04-15 12:59 | 64.79866 | 73.51337 | 20289 ft | 482 kts | 151° |
| 2026-04-15 12:59 | 64.76863 | 73.54823 | 20302 ft | 482 kts | 152° |
| 2026-04-15 12:59 | 64.73857 | 73.58300 | 20295 ft | 482 kts | 152° |
| 2026-04-15 13:00 | 64.70845 | 73.61776 | 20280 ft | 482 kts | 152° |
| 2026-04-15 13:00 | 64.67840 | 73.65236 | 20270 ft | 482 kts | 152° |
| 2026-04-15 13:00 | 64.64837 | 73.68682 | 20274 ft | 481 kts | 152° |
| 2026-04-15 13:00 | 64.61831 | 73.72121 | 20273 ft | 481 kts | 152° |
| 2026-04-15 13:01 | 64.58862 | 73.75510 | 20277 ft | 480 kts | 152° |
| 2026-04-15 13:01 | 64.55825 | 73.78968 | 20271 ft | 480 kts | 152° |
| 2026-04-15 13:01 | 64.52822 | 73.82380 | 20271 ft | 481 kts | 152° |
| 2026-04-15 13:01 | 64.49815 | 73.85788 | 20266 ft | 481 kts | 152° |
| 2026-04-15 13:02 | 64.46808 | 73.89187 | 20266 ft | 481 kts | 152° |
| 2026-04-15 13:02 | 64.43803 | 73.92577 | 20264 ft | 481 kts | 152° |
| 2026-04-15 13:02 | 64.40797 | 73.95960 | 20262 ft | 481 kts | 152° |
| 2026-04-15 13:02 | 64.37799 | 73.99323 | 20253 ft | 471 kts | 152° |
| 2026-04-15 13:03 | 64.34915 | 74.02546 | 20249 ft | 450 kts | 152° |
| 2026-04-15 13:03 | 64.32159 | 74.05617 | 20241 ft | 430 kts | 152° |
| 2026-04-15 13:03 | 64.29558 | 74.08511 | 20249 ft | 412 kts | 152° |
| 2026-04-15 13:03 | 64.27029 | 74.11322 | 20245 ft | 396 kts | 152° |
| 2026-04-15 13:04 | 64.24598 | 74.14021 | 20242 ft | 381 kts | 152° |
| 2026-04-15 13:04 | 64.22242 | 74.16588 | 20249 ft | 368 kts | 152° |
| 2026-04-15 13:04 | 64.19894 | 74.18724 | 20244 ft | 362 kts | 169° |
| 2026-04-15 13:04 | 64.17384 | 74.19368 | 20233 ft | 364 kts | 180° |
| 2026-04-15 13:05 | 64.14833 | 74.19575 | 20094 ft | 368 kts | 181° |
| 2026-04-15 13:05 | 64.12264 | 74.19730 | 19774 ft | 371 kts | 181° |
| 2026-04-15 13:05 | 64.09679 | 74.19935 | 19401 ft | 372 kts | 180° |
| 2026-04-15 13:05 | 64.07092 | 74.20210 | 19026 ft | 372 kts | 180° |
| 2026-04-15 13:06 | 64.04515 | 74.20544 | 18648 ft | 371 kts | 179° |
| 2026-04-15 13:06 | 64.01972 | 74.20913 | 18252 ft | 370 kts | 179° |
| 2026-04-15 13:06 | 63.99404 | 74.21310 | 17819 ft | 369 kts | 178° |
| 2026-04-15 13:06 | 63.96846 | 74.21719 | 17408 ft | 368 kts | 178° |
| 2026-04-15 13:07 | 63.94295 | 74.22133 | 16993 ft | 367 kts | 178° |
| 2026-04-15 13:07 | 63.91748 | 74.22550 | 16579 ft | 366 kts | 178° |
| 2026-04-15 13:07 | 63.89218 | 74.22964 | 16180 ft | 364 kts | 178° |
| 2026-04-15 13:07 | 63.86694 | 74.23377 | 15783 ft | 363 kts | 178° |
| 2026-04-15 13:08 | 63.84176 | 74.23788 | 15385 ft | 361 kts | 178° |
| 2026-04-15 13:08 | 63.81674 | 74.24196 | 14969 ft | 360 kts | 178° |
| 2026-04-15 13:08 | 63.79182 | 74.24601 | 14570 ft | 358 kts | 178° |
| 2026-04-15 13:08 | 63.76702 | 74.25004 | 14191 ft | 356 kts | 178° |
| 2026-04-15 13:09 | 63.74237 | 74.25404 | 13776 ft | 355 kts | 178° |
| 2026-04-15 13:09 | 63.71780 | 74.25801 | 13353 ft | 353 kts | 178° |
| 2026-04-15 13:09 | 63.69335 | 74.26195 | 12932 ft | 351 kts | 178° |
| 2026-04-15 13:09 | 63.66906 | 74.26586 | 12518 ft | 349 kts | 178° |
| 2026-04-15 13:10 | 63.64486 | 74.26976 | 12106 ft | 347 kts | 178° |
| 2026-04-15 13:10 | 63.62086 | 74.27361 | 11700 ft | 345 kts | 178° |
| 2026-04-15 13:10 | 63.59697 | 74.27744 | 11300 ft | 343 kts | 178° |
| 2026-04-15 13:10 | 63.57328 | 74.28123 | 10899 ft | 341 kts | 178° |
| 2026-04-15 13:11 | 63.54969 | 74.28500 | 10522 ft | 339 kts | 178° |
| 2026-04-15 13:11 | 63.52626 | 74.28874 | 10134 ft | 336 kts | 177° |
| 2026-04-15 13:11 | 63.50296 | 74.29244 | 9706 ft | 334 kts | 177° |
| 2026-04-15 13:11 | 63.47982 | 74.29612 | 9293 ft | 332 kts | 177° |
| 2026-04-15 13:12 | 63.45693 | 74.29952 | 8918 ft | 328 kts | 177° |
| 2026-04-15 13:12 | 63.43420 | 74.30299 | 8507 ft | 326 kts | 177° |
| 2026-04-15 13:12 | 63.41166 | 74.30659 | 8092 ft | 324 kts | 177° |
| 2026-04-15 13:12 | 63.38951 | 74.31018 | 7696 ft | 322 kts | 177° |
| 2026-04-15 13:13 | 63.36725 | 74.31378 | 7325 ft | 319 kts | 176° |
| 2026-04-15 13:13 | 63.34554 | 74.31727 | 7262 ft | 305 kts | 177° |
| 2026-04-15 13:13 | 63.32488 | 74.32057 | 7251 ft | 291 kts | 177° |
| 2026-04-15 13:13 | 63.30507 | 74.32371 | 7247 ft | 282 kts | 177° |
| 2026-04-15 13:14 | 63.28579 | 74.32974 | 7244 ft | 280 kts | 158° |
| 2026-04-15 13:14 | 63.27059 | 74.35462 | 7276 ft | 271 kts | 121° |
| 2026-04-15 13:14 | 63.26061 | 74.38993 | 7209 ft | 271 kts | 113° |
| 2026-04-15 13:14 | 63.25118 | 74.42628 | 7074 ft | 272 kts | 114° |
| 2026-04-15 13:15 | 63.24159 | 74.46229 | 6941 ft | 269 kts | 115° |
| 2026-04-15 13:15 | 63.23186 | 74.49747 | 6802 ft | 265 kts | 116° |
| 2026-04-15 13:15 | 63.22206 | 74.53196 | 6664 ft | 264 kts | 116° |
| 2026-04-15 13:15 | 63.21217 | 74.56611 | 6541 ft | 264 kts | 117° |
| 2026-04-15 13:16 | 63.20215 | 74.60022 | 6389 ft | 264 kts | 117° |
| 2026-04-15 13:16 | 63.19203 | 74.63431 | 6172 ft | 266 kts | 117° |
| 2026-04-15 13:16 | 63.18184 | 74.66835 | 5919 ft | 264 kts | 118° |
| 2026-04-15 13:16 | 63.17172 | 74.70197 | 5690 ft | 260 kts | 118° |
| 2026-04-15 13:17 | 63.16171 | 74.73511 | 5439 ft | 257 kts | 118° |
| 2026-04-15 13:17 | 63.15182 | 74.76772 | 5182 ft | 254 kts | 118° |
| 2026-04-15 13:17 | 63.14204 | 74.79993 | 4940 ft | 251 kts | 119° |
| 2026-04-15 13:17 | 63.13246 | 74.83144 | 4683 ft | 249 kts | 119° |
| 2026-04-15 13:18 | 63.12282 | 74.86313 | 4427 ft | 249 kts | 119° |
| 2026-04-15 13:18 | 63.11314 | 74.89486 | 4171 ft | 249 kts | 120° |
| 2026-04-15 13:18 | 63.10347 | 74.92655 | 3918 ft | 248 kts | 120° |
| 2026-04-15 13:18 | 63.09379 | 74.95823 | 3676 ft | 250 kts | 120° |
| 2026-04-15 13:19 | 63.08405 | 74.99001 | 3427 ft | 250 kts | 120° |
| 2026-04-15 13:19 | 63.07430 | 75.02176 | 3173 ft | 249 kts | 121° |
| 2026-04-15 13:19 | 63.06460 | 75.05344 | 2918 ft | 248 kts | 118° |
| 2026-04-15 13:19 | 63.05950 | 75.08825 | 2622 ft | 232 kts | 81° |
| 2026-04-15 13:20 | 63.06498 | 75.11792 | 2453 ft | 195 kts | 37° |
| 2026-04-15 13:20 | 63.07513 | 75.13457 | 2437 ft | 174 kts | 33° |
| 2026-04-15 13:20 | 63.08410 | 75.15166 | 2331 ft | 164 kts | 33° |
| 2026-04-15 13:20 | 63.09249 | 75.16724 | 2231 ft | 150 kts | 32° |
| 2026-04-15 13:21 | 63.10049 | 75.18183 | 1990 ft | 148 kts | 30° |
| 2026-04-15 13:21 | 63.10934 | 75.19217 | 1690 ft | 142 kts | 17° |
| 2026-04-15 13:21 | 63.11840 | 75.20146 | 1509 ft | 144 kts | 19° |
| 2026-04-15 13:21 | 63.12747 | 75.21081 | 1512 ft | 145 kts | 19° |
| 2026-04-15 13:22 | 63.13603 | 75.21965 | 1437 ft | 124 kts | 18° |
| 2026-04-15 13:22 | 63.14332 | 75.22703 | 1419 ft | 109 kts | 17° |
| 2026-04-15 13:22 | 63.15025 | 75.23430 | 1184 ft | 111 kts | 19° |
| 2026-04-15 13:22 | 63.15487 | 75.23940 | 1037 ft | 109 kts | 19° |
| 2026-04-15 13:23 | 63.16173 | 75.24620 | 741 ft | 109 kts | 20° |
| 2026-04-15 13:23 | 63.16839 | 75.25318 | 579 ft | 104 kts | 17° |
| 2026-04-15 13:23 | 63.17514 | 75.26009 | 474 ft | 107 kts | 18° |
| 2026-04-15 13:23 | 63.17987 | 75.26486 | 457 ft | 10 kts | 25° |
| 2026-04-15 13:24 | 63.17989 | 75.26489 | 457 ft | 0 kts | 25° |